createdAt,value
2022-10-05T00:00:54.569Z,101022.25
2022-10-05T00:03:30.388Z,101022.31
2022-10-05T00:06:01.762Z,101006.50
2022-10-05T00:08:34.433Z,101002.06
2022-10-05T00:11:12.490Z,101015.41
2022-10-05T00:13:43.794Z,100975.84
2022-10-05T00:16:19.023Z,101022.44
2022-10-05T00:18:52.985Z,101011.88
2022-10-05T00:21:27.249Z,100998.69
2022-10-05T00:24:00.720Z,101016.09
2022-10-05T00:26:33.290Z,101026.59
2022-10-05T00:29:17.890Z,101001.84
2022-10-05T00:31:50.282Z,101002.66
2022-10-05T00:34:21.644Z,101023.75
2022-10-05T00:36:52.922Z,101010.47
2022-10-05T00:39:24.315Z,101013.91
2022-10-05T00:42:07.160Z,101022.66
2022-10-05T00:44:51.693Z,101013.72
2022-10-05T00:47:44.118Z,100998.66
2022-10-05T00:50:47.098Z,101002.00
2022-10-05T00:53:24.362Z,100994.88
2022-10-05T00:56:14.802Z,100996.59
2022-10-05T00:59:17.097Z,100977.09
2022-10-05T01:02:37.054Z,100973.44
2022-10-05T01:05:26.716Z,100966.31
2022-10-05T01:08:32.573Z,100958.47
2022-10-05T01:11:11.715Z,100956.56
2022-10-05T01:13:54.916Z,100955.59
2022-10-05T01:16:31.995Z,100949.44
2022-10-05T01:19:51.009Z,100941.34
2022-10-05T01:22:59.934Z,100948.34
2022-10-05T01:25:47.663Z,100943.09
2022-10-05T01:28:49.175Z,100946.44
2022-10-05T01:31:40.837Z,100955.22
2022-10-05T01:34:25.836Z,100948.16
2022-10-05T01:37:14.199Z,100949.78
2022-10-05T01:40:00.619Z,100954.09
2022-10-05T01:42:31.844Z,100945.16
2022-10-05T01:45:14.569Z,100931.75
2022-10-05T01:47:49.965Z,100925.56
2022-10-05T01:50:33.997Z,100912.19
2022-10-05T01:53:26.875Z,100905.22
2022-10-05T01:56:11.130Z,100921.97
2022-10-05T01:59:03.477Z,100925.59
2022-10-05T02:01:43.781Z,100918.59
2022-10-05T02:04:56.461Z,100911.53
2022-10-05T02:07:23.460Z,100926.50
2022-10-05T02:10:11.406Z,100917.59
2022-10-05T02:12:44.281Z,100909.56
2022-10-05T02:15:22.950Z,100915.53
2022-10-05T02:18:03.177Z,100904.88
2022-10-05T02:20:37.833Z,100915.22
2022-10-05T02:23:14.510Z,100894.88
2022-10-05T02:25:49.316Z,100903.44
2022-10-05T02:28:30.614Z,100898.97
2022-10-05T02:31:08.787Z,100898.97
2022-10-05T02:33:40.456Z,100910.41
2022-10-05T02:36:19.680Z,100907.63
2022-10-05T02:39:19.829Z,100908.44
2022-10-05T02:42:16.205Z,100895.13
2022-10-05T02:45:09.258Z,100901.41
2022-10-05T02:47:43.172Z,100908.56
2022-10-05T02:50:26.868Z,100866.31
2022-10-05T02:53:15.731Z,100899.69
2022-10-05T02:56:17.871Z,100889.03
2022-10-05T02:58:59.738Z,100887.28
2022-10-05T03:01:40.844Z,100882.78
2022-10-05T03:04:41.256Z,100877.47
2022-10-05T03:07:32.318Z,100873.88
2022-10-05T03:10:14.619Z,100854.50
2022-10-05T03:13:00.857Z,100873.00
2022-10-05T03:15:48.039Z,100880.03
2022-10-05T03:18:40.444Z,100876.38
2022-10-05T03:21:40.660Z,100867.44
2022-10-05T03:24:36.874Z,100850.66
2022-10-05T03:27:36.344Z,100859.31
2022-10-05T03:30:16.443Z,100861.03
2022-10-05T03:33:12.371Z,100852.06
2022-10-05T03:35:49.642Z,100850.22
2022-10-05T03:38:43.004Z,100849.28
2022-10-05T03:41:24.163Z,100834.25
2022-10-05T03:44:01.530Z,100849.13
2022-10-05T03:46:48.321Z,100845.50
2022-10-05T03:49:39.654Z,100834.75
2022-10-05T03:52:18.718Z,100824.16
2022-10-05T03:55:03.639Z,100831.13
2022-10-05T03:57:38.789Z,100843.56
2022-10-05T04:00:14.981Z,100836.38
2022-10-05T04:03:01.377Z,100830.06
2022-10-05T04:05:43.477Z,100831.84
2022-10-05T04:08:28.046Z,100823.13
2022-10-05T04:11:08.542Z,100831.84
2022-10-05T04:13:46.454Z,100822.19
2022-10-05T04:16:47.405Z,100836.16
2022-10-05T04:19:37.151Z,100840.53
2022-10-05T04:22:21.755Z,100833.44
2022-10-05T04:25:01.566Z,100821.91
2022-10-05T04:27:39.190Z,100839.56
2022-10-05T04:30:17.510Z,100839.47
2022-10-05T04:32:57.356Z,100843.84
2022-10-05T04:35:57.872Z,100831.38
2022-10-05T04:38:46.148Z,100825.13
2022-10-05T04:41:45.658Z,100816.25
2022-10-05T04:44:23.102Z,100823.41
2022-10-05T04:47:22.024Z,100819.00
2022-10-05T04:50:24.841Z,100810.16
2022-10-05T04:53:13.060Z,100812.13
2022-10-05T04:56:05.847Z,100816.47
2022-10-05T04:58:43.822Z,100817.44
2022-10-05T05:01:47.506Z,100816.44
2022-10-05T05:04:33.202Z,100817.28
2022-10-05T05:07:26.377Z,100814.63
2022-10-05T05:10:36.563Z,100814.59
2022-10-05T05:13:15.646Z,100812.75
2022-10-05T05:16:01.029Z,100814.53
2022-10-05T05:18:51.106Z,100819.78
2022-10-05T05:21:32.919Z,100822.41
2022-10-05T05:24:56.682Z,100802.06
2022-10-05T05:27:40.706Z,100812.56
2022-10-05T05:30:24.581Z,100803.69
2022-10-05T05:33:18.460Z,100792.34
2022-10-05T05:36:05.474Z,100794.06
2022-10-05T05:38:54.848Z,100808.16
2022-10-05T05:41:38.818Z,100796.00
2022-10-05T05:44:10.085Z,100814.53
2022-10-05T05:47:04.740Z,100807.47
2022-10-05T05:50:07.245Z,100811.03
2022-10-05T05:52:45.887Z,100812.88
2022-10-05T05:55:32.898Z,100804.13
2022-10-05T05:58:13.465Z,100807.59
2022-10-05T06:01:25.032Z,100813.81
2022-10-05T06:04:10.838Z,100794.31
2022-10-05T06:06:53.934Z,100803.81
2022-10-05T06:09:31.137Z,100801.06
2022-10-05T06:12:23.473Z,100793.91
2022-10-05T06:15:12.075Z,100791.22
2022-10-05T06:17:52.570Z,100786.91
2022-10-05T06:20:41.623Z,100793.84
2022-10-05T06:23:29.719Z,100786.81
2022-10-05T06:26:30.555Z,100788.47
2022-10-05T06:29:05.731Z,100796.34
2022-10-05T06:31:58.727Z,100794.44
2022-10-05T06:34:55.751Z,100788.84
2022-10-05T06:37:45.988Z,100795.78
2022-10-05T06:40:30.098Z,100782.28
2022-10-05T06:43:20.174Z,100795.31
2022-10-05T06:46:07.117Z,100792.38
2022-10-05T06:48:57.937Z,100797.38
2022-10-05T06:51:49.668Z,100789.84
2022-10-05T06:54:59.454Z,100801.94
2022-10-05T06:57:50.640Z,100799.81
2022-10-05T07:00:32.020Z,100788.31
2022-10-05T07:03:27.629Z,100788.31
2022-10-05T07:06:44.916Z,100804.59
2022-10-05T07:09:56.349Z,100801.06
2022-10-05T07:12:49.685Z,100809.69
2022-10-05T07:15:41.906Z,100811.22
2022-10-05T07:18:25.311Z,100808.34
2022-10-05T07:21:39.474Z,100801.84
2022-10-05T07:24:33.791Z,100803.44
2022-10-05T07:27:17.157Z,100804.94
2022-10-05T07:30:11.018Z,100797.69
2022-10-05T07:32:56.656Z,100803.75
2022-10-05T07:36:11.657Z,100786.66
2022-10-05T07:38:46.309Z,100805.00
2022-10-05T07:41:25.487Z,100797.66
2022-10-05T07:44:12.923Z,100792.44
2022-10-05T07:46:58.487Z,100790.63
2022-10-05T07:50:14.412Z,100798.44
2022-10-05T07:53:15.318Z,100798.53
2022-10-05T07:55:52.344Z,100778.25
2022-10-05T07:58:34.604Z,100784.47
2022-10-05T08:01:27.603Z,100799.41
2022-10-05T08:04:25.925Z,100801.31
2022-10-05T08:07:02.284Z,100811.09
2022-10-05T08:09:55.370Z,100820.06
2022-10-05T08:12:48.646Z,100805.75
2022-10-05T08:15:25.607Z,100812.84
2022-10-05T08:18:04.317Z,100803.78
2022-10-05T08:20:47.110Z,100811.13
2022-10-05T08:23:42.986Z,100807.75
2022-10-05T08:26:19.069Z,100814.13
2022-10-05T08:29:12.929Z,100811.78
2022-10-05T08:31:49.922Z,100816.25
2022-10-05T08:34:45.728Z,100808.53
2022-10-05T08:37:23.462Z,100815.88
2022-10-05T08:40:22.606Z,100815.22
2022-10-05T08:43:05.849Z,100819.84
2022-10-05T08:46:08.230Z,100826.56
2022-10-05T08:48:58.058Z,100815.38
2022-10-05T08:52:06.218Z,100812.22
2022-10-05T08:54:46.619Z,100818.00
2022-10-05T08:57:46.459Z,100812.16
2022-10-05T09:00:37.049Z,100810.03
2022-10-05T09:03:23.820Z,100810.31
2022-10-05T09:06:06.102Z,100802.75
2022-10-05T09:08:51.247Z,100814.97
2022-10-05T09:11:41.871Z,100813.69
2022-10-05T09:15:07.188Z,100811.41
2022-10-05T09:18:19.845Z,100812.75
2022-10-05T09:20:55.414Z,100810.00
2022-10-05T09:23:29.778Z,100803.34
2022-10-05T09:26:08.863Z,100803.06
2022-10-05T09:29:14.203Z,100801.88
2022-10-05T09:32:06.506Z,100800.19
2022-10-05T09:35:17.027Z,100802.66
2022-10-05T09:37:51.318Z,100788.16
2022-10-05T09:40:31.361Z,100799.69
2022-10-05T09:43:27.794Z,100789.09
2022-10-05T09:46:31.627Z,100789.44
2022-10-05T09:49:06.037Z,100793.28
2022-10-05T09:51:59.868Z,100775.78
2022-10-05T09:54:47.425Z,100788.84
2022-10-05T09:57:39.782Z,100786.72
2022-10-05T10:00:22.846Z,100777.72
2022-10-05T10:03:24.354Z,100782.84
2022-10-05T10:06:01.184Z,100792.13
2022-10-05T10:08:46.205Z,100782.53
2022-10-05T10:11:39.623Z,100781.88
2022-10-05T10:14:16.676Z,100783.91
2022-10-05T10:17:06.799Z,100766.06
2022-10-05T10:20:06.219Z,100769.53
2022-10-05T10:23:04.569Z,100764.31
2022-10-05T10:25:47.900Z,100768.59
2022-10-05T10:29:12.260Z,100773.97
2022-10-05T10:31:58.043Z,100766.88
2022-10-05T10:35:04.481Z,100749.63
2022-10-05T10:38:05.894Z,100759.25
2022-10-05T10:41:14.922Z,100748.75
2022-10-05T10:44:16.665Z,100751.88
2022-10-05T10:47:17.717Z,100739.97
2022-10-05T10:50:28.246Z,100736.34
2022-10-05T10:53:24.282Z,100750.94
2022-10-05T10:56:28.831Z,100730.28
2022-10-05T10:59:46.055Z,100752.84
2022-10-05T11:02:46.428Z,100752.75
2022-10-05T11:05:25.889Z,100744.63
2022-10-05T11:08:34.745Z,100740.28
2022-10-05T11:11:27.172Z,100728.09
2022-10-05T11:14:24.058Z,100739.03
2022-10-05T11:17:23.307Z,100723.72
2022-10-05T11:20:20.306Z,100729.28
2022-10-05T11:22:58.634Z,100711.63
2022-10-05T11:25:50.066Z,100729.78
2022-10-05T11:28:43.298Z,100729.78
2022-10-05T11:31:30.315Z,100726.72
2022-10-05T11:34:29.199Z,100723.34
2022-10-05T11:37:36.116Z,100717.81
2022-10-05T11:40:28.680Z,100723.06
2022-10-05T11:43:25.031Z,100718.97
2022-10-05T11:45:59.436Z,100710.47
2022-10-05T11:48:55.671Z,100708.34
2022-10-05T11:51:55.026Z,100703.44
2022-10-05T11:54:38.296Z,100710.16
2022-10-05T11:57:28.755Z,100688.38
2022-10-05T12:00:16.380Z,100679.53
2022-10-05T12:03:11.014Z,100680.94
2022-10-05T12:05:50.818Z,100674.00
2022-10-05T12:08:48.481Z,100665.69
2022-10-05T12:11:49.494Z,100667.25
2022-10-05T12:14:49.233Z,100659.97
2022-10-05T12:17:20.502Z,100663.81
2022-10-05T12:20:10.662Z,100657.31
2022-10-05T12:22:48.157Z,100661.56
2022-10-05T12:25:29.007Z,100667.56
2022-10-05T12:28:10.479Z,100655.16
2022-10-05T12:31:09.310Z,100655.84
2022-10-05T12:34:11.375Z,100629.88
2022-10-05T12:37:05.986Z,100641.13
2022-10-05T12:39:59.602Z,100640.00
2022-10-05T12:42:50.738Z,100644.78
2022-10-05T12:45:34.031Z,100641.66
2022-10-05T12:48:34.868Z,100630.69
2022-10-05T12:51:25.360Z,100626.47
2022-10-05T12:54:08.956Z,100625.44
2022-10-05T12:56:58.013Z,100627.81
2022-10-05T12:59:40.290Z,100617.84
2022-10-05T13:02:38.906Z,100627.75
2022-10-05T13:05:10.123Z,100615.91
2022-10-05T13:08:18.945Z,100610.63
2022-10-05T13:11:15.136Z,100597.03
2022-10-05T13:13:57.547Z,100585.13
2022-10-05T13:16:51.268Z,100599.75
2022-10-05T13:19:41.950Z,100586.22
2022-10-05T13:22:25.010Z,100572.44
2022-10-05T13:25:17.401Z,100597.28
2022-10-05T13:28:02.193Z,100585.31
2022-10-05T13:30:34.855Z,100593.41
2022-10-05T13:33:24.902Z,100581.66
2022-10-05T13:36:04.940Z,100578.19
2022-10-05T13:38:51.670Z,100579.94
2022-10-05T13:41:43.672Z,100580.44
2022-10-05T13:44:26.901Z,100571.31
2022-10-05T13:47:09.135Z,100571.22
2022-10-05T13:50:02.259Z,100567.75
2022-10-05T13:52:47.522Z,100571.22
2022-10-05T13:55:45.590Z,100576.59
2022-10-05T13:58:39.200Z,100569.66
2022-10-05T14:01:35.206Z,100569.66
2022-10-05T14:04:16.825Z,100548.66
2022-10-05T14:06:48.972Z,100583.00
2022-10-05T14:09:20.181Z,100576.09
2022-10-05T14:12:13.315Z,100572.81
2022-10-05T14:14:52.957Z,100577.44
2022-10-05T14:17:33.325Z,100583.00
2022-10-05T14:20:33.178Z,100580.66
2022-10-05T14:23:17.355Z,100581.81
2022-10-05T14:25:54.116Z,100584.25
2022-10-05T14:28:31.970Z,100590.34
2022-10-05T14:31:13.840Z,100588.78
2022-10-05T14:33:45.714Z,100588.09
2022-10-05T14:36:34.586Z,100587.50
2022-10-05T14:39:12.985Z,100580.47
2022-10-05T14:41:48.938Z,100585.84
2022-10-05T14:44:28.554Z,100583.94
2022-10-05T14:47:16.293Z,100593.25
2022-10-05T14:49:50.429Z,100584.28
2022-10-05T14:52:32.585Z,100581.59
2022-10-05T14:55:10.855Z,100583.34
2022-10-05T14:58:16.218Z,100580.81
2022-10-05T15:01:07.262Z,100566.06
2022-10-05T15:03:46.592Z,100582.03
2022-10-05T15:06:37.244Z,100579.53
2022-10-05T15:09:34.772Z,100560.97
2022-10-05T15:12:06.061Z,100567.31
2022-10-05T15:14:42.860Z,100562.97
2022-10-05T15:17:20.105Z,100562.28
2022-10-05T15:20:18.448Z,100569.50
2022-10-05T15:23:05.922Z,100568.63
2022-10-05T15:25:49.982Z,100554.66
2022-10-05T15:28:48.255Z,100561.78
2022-10-05T15:31:31.121Z,100558.38
2022-10-05T15:34:22.193Z,100535.53
2022-10-05T15:37:24.634Z,100553.41
2022-10-05T15:39:59.600Z,100537.44
2022-10-05T15:42:39.084Z,100537.50
2022-10-05T15:45:25.736Z,100530.41
2022-10-05T15:48:07.522Z,100533.25
2022-10-05T15:50:55.329Z,100531.69
2022-10-05T15:53:35.725Z,100526.56
2022-10-05T15:56:09.709Z,100526.94
2022-10-05T15:59:06.875Z,100528.41
2022-10-05T16:01:48.783Z,100530.97
2022-10-05T16:04:30.044Z,100528.19
2022-10-05T16:07:21.485Z,100539.97
2022-10-05T16:10:21.371Z,100517.06
2022-10-05T16:12:52.729Z,100532.72
2022-10-05T16:15:33.820Z,100532.56
2022-10-05T16:18:14.067Z,100533.13
2022-10-05T16:20:53.558Z,100531.91
2022-10-05T16:23:49.421Z,100536.97
2022-10-05T16:26:41.706Z,100534.09
2022-10-05T16:29:32.839Z,100527.59
2022-10-05T16:32:13.864Z,100531.84
2022-10-05T16:35:04.046Z,100516.63
2022-10-05T16:38:00.242Z,100544.63
2022-10-05T16:40:57.254Z,100530.91
2022-10-05T16:43:49.164Z,100535.19
2022-10-05T16:46:35.491Z,100533.00
2022-10-05T16:49:28.229Z,100536.03
2022-10-05T16:52:01.593Z,100550.72
2022-10-05T16:54:48.735Z,100542.22
2022-10-05T16:57:23.592Z,100544.66
2022-10-05T17:00:24.111Z,100566.22
2022-10-05T17:03:15.291Z,100572.84
2022-10-05T17:06:10.804Z,100572.25
2022-10-05T17:09:01.039Z,100576.13
2022-10-05T17:11:42.734Z,100567.47
2022-10-05T17:14:43.238Z,100592.78
2022-10-05T17:17:20.611Z,100601.38
2022-10-05T17:20:03.332Z,100603.84
2022-10-05T17:22:48.409Z,100587.03
2022-10-05T17:25:57.072Z,100598.97
2022-10-05T17:28:41.659Z,100592.75
2022-10-05T17:31:22.001Z,100601.25
2022-10-05T17:33:59.400Z,100605.06
2022-10-05T17:36:49.393Z,100613.53
2022-10-05T17:39:22.655Z,100607.75
2022-10-05T17:42:25.946Z,100610.44
2022-10-05T17:45:31.173Z,100613.00
2022-10-05T17:48:05.454Z,100611.94
2022-10-05T17:51:04.633Z,100610.00
2022-10-05T17:53:55.952Z,100611.53
2022-10-05T17:56:27.838Z,100615.81
2022-10-05T17:59:02.623Z,100604.97
2022-10-05T18:01:39.277Z,100600.50
2022-10-05T18:04:13.713Z,100612.88
2022-10-05T18:06:58.922Z,100602.09
2022-10-05T18:09:34.322Z,100610.88
2022-10-05T18:12:26.387Z,100604.47
2022-10-05T18:15:01.464Z,100599.84
2022-10-05T18:17:37.430Z,100594.34
2022-10-05T18:20:23.738Z,100588.84
2022-10-05T18:23:01.076Z,100586.97
2022-10-05T18:25:52.541Z,100581.56
2022-10-05T18:28:52.817Z,100578.88
2022-10-05T18:31:41.797Z,100579.00
2022-10-05T18:34:35.794Z,100579.75
2022-10-05T18:37:15.427Z,100580.59
2022-10-05T18:40:08.528Z,100571.63
2022-10-05T18:43:06.838Z,100574.19
2022-10-05T18:45:47.029Z,100581.34
2022-10-05T18:48:48.396Z,100574.25
2022-10-05T18:51:41.917Z,100571.44
2022-10-05T18:54:28.179Z,100571.28
2022-10-05T18:57:21.280Z,100556.34
2022-10-05T19:00:02.881Z,100575.50
2022-10-05T19:02:57.014Z,100571.00
2022-10-05T19:05:51.278Z,100585.56
2022-10-05T19:08:43.551Z,100571.63
2022-10-05T19:11:27.827Z,100575.25
2022-10-05T19:14:24.122Z,100569.75
2022-10-05T19:17:20.700Z,100564.41
2022-10-05T19:20:01.478Z,100573.56
2022-10-05T19:22:52.813Z,100575.59
2022-10-05T19:25:44.312Z,100583.69
2022-10-05T19:28:33.076Z,100570.63
2022-10-05T19:31:26.287Z,100572.84
2022-10-05T19:34:19.052Z,100575.78
2022-10-05T19:36:59.070Z,100585.75
2022-10-05T19:39:57.618Z,100587.69
2022-10-05T19:42:45.025Z,100586.75
2022-10-05T19:45:22.671Z,100588.19
2022-10-05T19:48:13.751Z,100595.88
2022-10-05T19:50:57.290Z,100598.09
2022-10-05T19:53:36.983Z,100599.44
2022-10-05T19:56:26.412Z,100606.06
2022-10-05T19:59:10.702Z,100603.84
2022-10-05T20:01:47.987Z,100611.41
2022-10-05T20:04:37.838Z,100599.59
2022-10-05T20:07:15.618Z,100612.59
2022-10-05T20:09:54.422Z,100608.69
2022-10-05T20:12:51.704Z,100628.09
2022-10-05T20:15:47.920Z,100629.63
2022-10-05T20:19:02.579Z,100629.44
2022-10-05T20:21:46.261Z,100626.53
2022-10-05T20:24:26.216Z,100627.25
2022-10-05T20:27:05.687Z,100631.47
2022-10-05T20:29:39.241Z,100626.69
2022-10-05T20:32:17.606Z,100613.03
2022-10-05T20:34:49.289Z,100629.88
2022-10-05T20:37:20.582Z,100630.75
2022-10-05T20:39:51.869Z,100625.88
2022-10-05T20:42:23.723Z,100641.97
2022-10-05T20:44:57.212Z,100629.59
2022-10-05T20:47:28.697Z,100642.56
2022-10-05T20:50:00.877Z,100647.41
2022-10-05T20:52:32.133Z,100654.28
2022-10-05T20:55:08.819Z,100636.91
2022-10-05T20:57:42.151Z,100643.06
2022-10-05T21:00:13.866Z,100637.41
2022-10-05T21:02:46.754Z,100643.41
2022-10-05T21:05:18.213Z,100653.06
2022-10-05T21:07:49.584Z,100658.44
2022-10-05T21:10:21.194Z,100658.56
2022-10-05T21:12:52.588Z,100664.81
2022-10-05T21:15:23.965Z,100673.81
2022-10-05T21:17:56.514Z,100662.06
2022-10-05T21:20:27.785Z,100665.69
2022-10-05T21:22:59.044Z,100660.75
2022-10-05T21:25:30.284Z,100665.34
2022-10-05T21:28:02.567Z,100676.88
2022-10-05T21:30:33.877Z,100677.00
2022-10-05T21:33:05.138Z,100680.84
2022-10-05T21:35:36.496Z,100672.81
2022-10-05T21:38:07.943Z,100680.63
2022-10-05T21:40:39.315Z,100684.91
2022-10-05T21:43:11.139Z,100670.69
2022-10-05T21:45:43.921Z,100680.34
2022-10-05T21:48:16.417Z,100668.16
2022-10-05T21:50:47.772Z,100661.94
2022-10-05T21:53:22.725Z,100684.91
2022-10-05T21:55:54.229Z,100678.91
2022-10-05T21:58:27.618Z,100675.28
2022-10-05T22:00:59.125Z,100689.50
2022-10-05T22:03:30.486Z,100678.97
2022-10-05T22:06:03.566Z,100691.38
2022-10-05T22:08:35.217Z,100689.41
2022-10-05T22:11:17.825Z,100696.47
2022-10-05T22:13:50.945Z,100692.91
2022-10-05T22:16:23.798Z,100692.03
2022-10-05T22:18:55.146Z,100701.69
2022-10-05T22:21:26.424Z,100701.69
2022-10-05T22:23:57.794Z,100706.03
2022-10-05T22:26:29.658Z,100697.25
2022-10-05T22:29:02.257Z,100706.91
2022-10-05T22:31:33.792Z,100712.28
2022-10-05T22:34:05.222Z,100713.16
2022-10-05T22:36:37.221Z,100708.78
2022-10-05T22:39:08.558Z,100722.88
2022-10-05T22:41:39.860Z,100709.66
2022-10-05T22:44:11.217Z,100716.91
2022-10-05T22:46:43.099Z,100720.25
2022-10-05T22:49:14.429Z,100727.44
2022-10-05T22:51:45.729Z,100734.63
2022-10-05T22:54:17.661Z,100751.53
2022-10-05T22:56:48.967Z,100757.97
2022-10-05T22:59:20.294Z,100768.22
2022-10-05T23:01:51.690Z,100779.63
2022-10-05T23:04:23.242Z,100811.25
2022-10-05T23:06:54.686Z,100835.09
2022-10-05T23:09:26.020Z,100840.78
2022-10-05T23:11:58.047Z,100854.00
2022-10-05T23:14:30.698Z,100860.75
2022-10-05T23:17:02.062Z,100849.50
2022-10-05T23:19:33.341Z,100838.75
2022-10-05T23:22:04.698Z,100857.44
2022-10-05T23:24:35.975Z,100856.31
2022-10-05T23:27:07.232Z,100854.94
2022-10-05T23:29:38.492Z,100862.38
2022-10-05T23:32:09.916Z,100862.66
2022-10-05T23:34:41.166Z,100833.59
2022-10-05T23:37:13.446Z,100843.44
2022-10-05T23:39:44.724Z,100870.88
2022-10-05T23:42:15.963Z,100874.44
2022-10-05T23:44:47.278Z,100878.03
2022-10-05T23:47:18.621Z,100892.22
2022-10-05T23:49:49.919Z,100876.38
2022-10-05T23:52:21.243Z,100894.84
2022-10-05T23:54:52.608Z,100900.19
2022-10-05T23:57:23.906Z,100908.16
2022-10-05T23:59:56.184Z,100909.91
